Time;durP1;ratioP1;P1;durP2;ratioP2;P2;SDS_P1;SDS_P2;PMS_P1;PMS_P2;Temp;Humidity;BMP_temperature;BMP_pressure;BME280_temperature;BME280_humidity;BME280_pressure;Samples;Min_cycle;Max_cycle;Signal;HPM_P1;HPM_P2
2022/05/05 00:00:47;;;;;;;15.23;6.50;;;;;;;;;;5026818;28;20479;-63
2022/05/05 00:03:14;;;;;;;12.85;5.63;;;;;;;;;;5032609;28;20124;-63
2022/05/05 00:05:40;;;;;;;16.40;6.32;;;;;;;;;;5025185;28;20073;-63
2022/05/05 00:08:08;;;;;;;11.48;5.95;;;;;;;;;;5026940;28;20063;-63
2022/05/05 00:16:05;;;;;;;17.38;6.82;;;;;;;;;;5025090;28;20042;-63
2022/05/05 00:18:31;;;;;;;11.77;6.53;;;;;;;;;;5025821;28;20049;-65
2022/05/05 00:20:57;;;;;;;14.05;6.35;;;;;;;;;;5027313;28;20033;-63
2022/05/05 00:23:23;;;;;;;15.63;6.57;;;;;;;;;;5048920;28;20041;-63
2022/05/05 00:25:49;;;;;;;15.02;6.68;;;;;;;;;;5028265;28;20045;-63
2022/05/05 00:28:16;;;;;;;16.27;7.88;;;;;;;;;;5028475;28;20073;-63
2022/05/05 00:30:42;;;;;;;18.73;6.88;;;;;;;;;;5012480;28;20041;-63
2022/05/05 00:33:08;;;;;;;11.00;6.07;;;;;;;;;;5030297;28;20099;-63
2022/05/05 00:35:34;;;;;;;16.42;6.93;;;;;;;;;;5011749;28;20049;-63
2022/05/05 00:38:00;;;;;;;14.60;7.45;;;;;;;;;;5029450;28;20037;-64
2022/05/05 00:40:26;;;;;;;14.73;7.40;;;;;;;;;;5050433;28;20057;-63
2022/05/05 00:42:52;;;;;;;13.23;6.88;;;;;;;;;;5029508;28;20116;-63
2022/05/05 00:45:19;;;;;;;16.48;7.15;;;;;;;;;;5027731;28;20045;-64
2022/05/05 00:47:45;;;;;;;14.48;6.82;;;;;;;;;;5028002;28;20045;-63
2022/05/05 00:50:12;;;;;;;13.40;6.88;;;;;;;;;;5028636;28;20049;-64
2022/05/05 00:52:38;;;;;;;12.30;6.90;;;;;;;;;;5034497;28;20121;-63
2022/05/05 00:55:04;;;;;;;14.52;7.20;;;;;;;;;;5028757;28;20522;-63
2022/05/05 00:57:30;;;;;;;13.00;6.68;;;;;;;;;;5028245;28;20537;-63
2022/05/05 01:00:00;;;;;;;15.20;7.13;;;;;;;;;;5028578;28;20136;-64
2022/05/05 01:02:26;;;;;;;9.48;6.75;;;;;;;;;;5027931;28;20040;-62
2022/05/05 01:04:52;;;;;;;11.05;7.13;;;;;;;;;;5028088;28;20041;-64
2022/05/05 01:07:21;;;;;;;17.73;7.40;;;;;;;;;;5011519;28;20068;-63
2022/05/05 01:09:48;;;;;;;18.83;7.28;;;;;;;;;;5027951;28;20484;-64
2022/05/05 01:12:14;;;;;;;14.18;7.32;;;;;;;;;;5053653;28;20042;-62
2022/05/05 01:14:41;;;;;;;13.98;7.13;;;;;;;;;;5027941;28;20045;-63
2022/05/05 01:17:07;;;;;;;11.85;7.07;;;;;;;;;;5027724;28;20045;-63
2022/05/05 01:19:35;;;;;;;15.07;8.13;;;;;;;;;;5029446;28;20110;-63
2022/05/05 01:22:03;;;;;;;15.15;7.90;;;;;;;;;;5037920;28;20034;-64
2022/05/05 01:29:59;;;;;;;15.07;7.43;;;;;;;;;;5028752;28;20057;-64
2022/05/05 01:32:34;;;;;;;11.27;7.60;;;;;;;;;;5047356;28;20056;-63
2022/05/05 01:35:01;;;;;;;11.20;7.55;;;;;;;;;;5024986;28;20049;-63
2022/05/05 01:37:27;;;;;;;13.35;7.15;;;;;;;;;;5027708;28;20041;-63
2022/05/05 01:39:53;;;;;;;13.90;6.90;;;;;;;;;;5027420;28;20042;-63
2022/05/05 01:42:19;;;;;;;14.73;6.97;;;;;;;;;;5038302;28;20539;-63
2022/05/05 01:44:45;;;;;;;12.77;6.88;;;;;;;;;;5052711;28;20073;-62
2022/05/05 01:47:12;;;;;;;14.48;6.95;;;;;;;;;;5027099;28;20096;-63
2022/05/05 01:49:38;;;;;;;13.65;6.28;;;;;;;;;;5037763;28;20041;-63
2022/05/05 01:52:10;;;;;;;10.90;6.90;;;;;;;;;;5048188;28;20076;-63
2022/05/05 01:54:38;;;;;;;13.15;6.78;;;;;;;;;;5026491;28;20057;-66
2022/05/05 01:57:06;;;;;;;12.77;6.45;;;;;;;;;;5051248;28;20057;-65
2022/05/05 01:59:33;;;;;;;15.02;6.82;;;;;;;;;;5051061;28;20080;-66
2022/05/05 02:02:00;;;;;;;12.55;6.45;;;;;;;;;;5027364;28;20400;-65
2022/05/05 02:04:26;;;;;;;11.77;6.82;;;;;;;;;;5049882;28;20086;-66
2022/05/05 02:06:52;;;;;;;12.02;6.75;;;;;;;;;;5026097;28;20041;-66
2022/05/05 02:09:24;;;;;;;11.85;6.07;;;;;;;;;;5025840;28;20051;-65
2022/05/05 02:11:50;;;;;;;13.52;6.40;;;;;;;;;;5009074;28;20047;-65
2022/05/05 02:14:16;;;;;;;11.52;6.30;;;;;;;;;;5050872;28;20049;-66
2022/05/05 02:16:42;;;;;;;13.65;6.25;;;;;;;;;;5026161;28;20041;-66
2022/05/05 02:19:08;;;;;;;13.77;6.65;;;;;;;;;;5026004;28;20144;-65
2022/05/05 02:21:34;;;;;;;14.82;6.78;;;;;;;;;;5051783;28;20037;-65
2022/05/05 02:24:00;;;;;;;13.88;6.53;;;;;;;;;;5026052;28;20045;-66
2022/05/05 02:26:28;;;;;;;11.35;6.20;;;;;;;;;;5042068;28;20495;-65
2022/05/05 02:28:54;;;;;;;14.35;7.07;;;;;;;;;;5023690;28;20368;-65
2022/05/05 02:31:21;;;;;;;11.48;7.47;;;;;;;;;;5009395;28;20092;-66
2022/05/05 02:33:47;;;;;;;11.63;7.80;;;;;;;;;;5033598;28;20077;-65
2022/05/05 02:38:58;;;;;;;15.25;8.73;;;;;;;;;;5023085;28;20084;-66
2022/05/05 02:41:25;;;;;;;17.50;8.52;;;;;;;;;;5024981;28;20069;-65
2022/05/05 02:43:51;;;;;;;14.70;8.32;;;;;;;;;;5026239;28;20544;-62
2022/05/05 02:46:17;;;;;;;19.50;8.35;;;;;;;;;;5026713;28;20043;-63
2022/05/05 02:48:43;;;;;;;17.55;8.57;;;;;;;;;;5024255;28;20037;-64
2022/05/05 02:51:09;;;;;;;18.05;8.70;;;;;;;;;;5027264;28;20128;-63
2022/05/05 02:56:20;;;;;;;14.55;7.70;;;;;;;;;;5025825;28;20053;-64
2022/05/05 02:58:53;;;;;;;14.73;8.45;;;;;;;;;;5032281;28;20549;-64
2022/05/05 03:01:19;;;;;;;13.98;7.68;;;;;;;;;;5026937;28;20080;-65
2022/05/05 03:03:45;;;;;;;12.07;7.88;;;;;;;;;;5026276;28;20037;-65
2022/05/05 03:06:11;;;;;;;13.55;8.05;;;;;;;;;;5026585;28;20506;-65
2022/05/05 03:08:38;;;;;;;15.27;7.95;;;;;;;;;;5025404;28;20041;-64
2022/05/05 03:11:04;;;;;;;12.60;7.68;;;;;;;;;;5024937;28;20075;-64
2022/05/05 03:13:30;;;;;;;11.90;7.13;;;;;;;;;;5050191;28;20064;-66
2022/05/05 03:15:56;;;;;;;10.90;7.30;;;;;;;;;;5025217;28;20124;-65
2022/05/05 03:18:22;;;;;;;15.52;8.00;;;;;;;;;;5023933;28;20053;-65
2022/05/05 03:20:49;;;;;;;14.95;7.82;;;;;;;;;;5026320;28;20430;-65
2022/05/05 03:23:15;;;;;;;17.00;7.65;;;;;;;;;;5024266;28;20140;-63
2022/05/05 03:25:41;;;;;;;13.35;7.95;;;;;;;;;;5008290;28;20124;-64
2022/05/05 03:28:07;;;;;;;17.60;7.97;;;;;;;;;;5024571;28;20041;-63
2022/05/05 03:30:33;;;;;;;12.73;7.63;;;;;;;;;;5026262;28;20043;-63
2022/05/05 03:32:59;;;;;;;11.00;7.63;;;;;;;;;;5033324;28;20069;-64
2022/05/05 03:35:26;;;;;;;14.07;7.82;;;;;;;;;;5024876;28;20042;-66
2022/05/05 03:37:52;;;;;;;15.48;7.68;;;;;;;;;;5046479;28;20408;-65
2022/05/05 03:40:18;;;;;;;14.35;7.68;;;;;;;;;;5026042;28;20090;-65
2022/05/05 03:42:44;;;;;;;14.50;8.00;;;;;;;;;;5025114;28;20045;-65
2022/05/05 03:45:10;;;;;;;12.00;8.40;;;;;;;;;;5031701;28;20055;-65
2022/05/05 03:47:36;;;;;;;11.70;8.13;;;;;;;;;;5024684;28;20049;-65
2022/05/05 03:50:02;;;;;;;16.85;8.50;;;;;;;;;;5049201;28;20124;-65
2022/05/05 03:52:28;;;;;;;16.77;8.45;;;;;;;;;;5025941;28;20122;-66
2022/05/05 03:54:54;;;;;;;12.73;8.30;;;;;;;;;;5024298;28;20060;-64
2022/05/05 03:57:20;;;;;;;19.95;9.50;;;;;;;;;;5028993;28;20037;-65
2022/05/05 03:59:46;;;;;;;12.98;8.13;;;;;;;;;;5027951;28;20557;-66
2022/05/05 04:02:13;;;;;;;13.77;8.35;;;;;;;;;;5029511;28;20029;-63
2022/05/05 04:04:39;;;;;;;16.38;8.80;;;;;;;;;;5053298;28;20034;-64
2022/05/05 04:07:05;;;;;;;15.45;9.15;;;;;;;;;;5028184;28;20568;-65
2022/05/05 04:09:31;;;;;;;15.57;8.88;;;;;;;;;;5011685;28;20045;-64
2022/05/05 04:11:57;;;;;;;16.73;8.93;;;;;;;;;;5038151;28;20045;-65
2022/05/05 04:14:23;;;;;;;14.02;8.55;;;;;;;;;;5029240;28;20049;-64
2022/05/05 04:16:49;;;;;;;15.75;9.18;;;;;;;;;;5029390;28;20045;-65
2022/05/05 04:19:15;;;;;;;14.70;8.95;;;;;;;;;;5054339;28;20041;-65
2022/05/05 04:21:41;;;;;;;15.65;8.57;;;;;;;;;;5029457;28;20499;-64
2022/05/05 04:24:07;;;;;;;14.82;9.32;;;;;;;;;;5028710;28;20136;-65
2022/05/05 04:26:33;;;;;;;13.70;9.48;;;;;;;;;;5029196;28;20491;-65
2022/05/05 04:28:59;;;;;;;13.63;8.85;;;;;;;;;;5054394;28;20042;-65
2022/05/05 04:31:29;;;;;;;15.70;9.50;;;;;;;;;;5027025;28;20439;-65
2022/05/05 04:33:55;;;;;;;14.73;8.90;;;;;;;;;;5028769;28;20041;-65
2022/05/05 04:36:21;;;;;;;14.38;9.07;;;;;;;;;;5027667;28;20479;-65
2022/05/05 04:38:47;;;;;;;14.77;8.88;;;;;;;;;;5029045;28;20145;-65
2022/05/05 04:41:13;;;;;;;15.05;9.40;;;;;;;;;;5027104;28;20042;-64
2022/05/05 04:43:39;;;;;;;13.05;8.48;;;;;;;;;;5050385;28;20051;-64
2022/05/05 04:46:06;;;;;;;16.00;9.23;;;;;;;;;;5011105;28;20033;-65
2022/05/05 04:48:32;;;;;;;15.35;9.02;;;;;;;;;;5035562;28;20509;-65
2022/05/05 04:50:58;;;;;;;14.63;9.43;;;;;;;;;;5028507;28;20040;-64
2022/05/05 04:53:24;;;;;;;14.82;9.38;;;;;;;;;;5028945;28;20135;-64
2022/05/05 04:55:50;;;;;;;14.77;9.20;;;;;;;;;;5027554;28;20380;-64
2022/05/05 04:58:16;;;;;;;13.35;8.77;;;;;;;;;;5027500;28;20073;-65
2022/05/05 05:00:44;;;;;;;15.52;9.48;;;;;;;;;;5050380;28;20040;-65
2022/05/05 05:03:32;;;;;;;16.15;8.68;;;;;;;;;;5028598;28;20037;-65
2022/05/05 05:05:56;;;;;;;16.52;8.27;;;;;;;;;;5047974;28;20121;-66
2022/05/05 05:08:23;;;;;;;13.30;7.72;;;;;;;;;;5033024;28;20041;-64
2022/05/05 05:10:49;;;;;;;16.65;8.93;;;;;;;;;;5052535;28;20041;-63
2022/05/05 05:13:15;;;;;;;16.15;8.35;;;;;;;;;;5028529;28;20033;-63
2022/05/05 05:15:41;;;;;;;16.90;8.57;;;;;;;;;;5053824;28;20123;-63
2022/05/05 05:18:07;;;;;;;14.77;8.85;;;;;;;;;;5027968;28;20099;-63
2022/05/05 05:20:33;;;;;;;16.88;8.15;;;;;;;;;;5028071;28;20041;-63
2022/05/05 05:22:59;;;;;;;17.60;8.40;;;;;;;;;;5028811;28;20095;-66
2022/05/05 05:25:25;;;;;;;13.32;8.20;;;;;;;;;;5028208;28;20095;-63
2022/05/05 05:27:51;;;;;;;14.93;8.00;;;;;;;;;;5028376;28;20391;-64
2022/05/05 05:30:17;;;;;;;12.95;7.60;;;;;;;;;;5031208;28;20038;-62
2022/05/05 05:32:44;;;;;;;13.32;7.95;;;;;;;;;;5028876;28;20045;-63
2022/05/05 05:35:10;;;;;;;14.15;8.07;;;;;;;;;;5011402;28;20037;-63
2022/05/05 05:37:38;;;;;;;14.88;8.55;;;;;;;;;;5027924;28;20498;-62
2022/05/05 05:40:04;;;;;;;16.58;8.50;;;;;;;;;;5027310;28;20045;-64
2022/05/05 05:42:30;;;;;;;16.38;8.18;;;;;;;;;;5027431;28;20064;-63
2022/05/05 05:44:57;;;;;;;13.43;8.40;;;;;;;;;;5029518;28;20069;-63
2022/05/05 05:47:23;;;;;;;13.35;8.48;;;;;;;;;;5052945;28;20033;-62
2022/05/05 05:49:49;;;;;;;13.55;7.03;;;;;;;;;;5027504;28;20052;-62
2022/05/05 05:52:15;;;;;;;10.70;7.63;;;;;;;;;;5027826;28;20633;-66
2022/05/05 05:54:41;;;;;;;15.55;7.80;;;;;;;;;;5015935;28;20083;-65
2022/05/05 05:57:07;;;;;;;12.77;7.78;;;;;;;;;;5050742;28;20407;-66
2022/05/05 05:59:33;;;;;;;13.73;7.93;;;;;;;;;;5028582;28;20037;-66
2022/05/05 06:04:44;;;;;;;13.88;7.38;;;;;;;;;;5026420;28;20244;-65
2022/05/05 06:07:10;;;;;;;12.82;7.47;;;;;;;;;;5027010;28;20140;-64
2022/05/05 06:09:36;;;;;;;12.77;7.03;;;;;;;;;;5025644;28;20049;-65
2022/05/05 06:12:03;;;;;;;11.63;7.30;;;;;;;;;;5050905;28;20123;-67
2022/05/05 06:14:30;;;;;;;12.70;6.57;;;;;;;;;;5029379;28;20052;-66
2022/05/05 06:16:56;;;;;;;14.13;7.10;;;;;;;;;;5025738;28;20045;-65
2022/05/05 06:19:22;;;;;;;14.50;7.30;;;;;;;;;;5024769;28;20048;-65
2022/05/05 06:21:50;;;;;;;12.52;6.72;;;;;;;;;;5025853;28;20049;-66
2022/05/05 06:24:16;;;;;;;13.55;7.10;;;;;;;;;;5009389;28;20041;-65
2022/05/05 06:26:42;;;;;;;13.68;7.40;;;;;;;;;;5025252;28;20043;-66
2022/05/05 06:29:08;;;;;;;16.65;7.03;;;;;;;;;;5026315;28;20049;-66
2022/05/05 06:31:34;;;;;;;13.02;6.13;;;;;;;;;;5026744;28;21860;-65
2022/05/05 06:34:00;;;;;;;17.02;6.68;;;;;;;;;;5009074;28;20042;-66
2022/05/05 06:36:27;;;;;;;15.38;6.70;;;;;;;;;;5026187;28;20064;-66
2022/05/05 06:38:53;;;;;;;12.13;6.10;;;;;;;;;;5032620;28;20091;-65
2022/05/05 06:41:20;;;;;;;12.80;6.18;;;;;;;;;;5025268;28;20538;-66
2022/05/05 06:43:46;;;;;;;15.50;6.20;;;;;;;;;;5027706;28;20064;-64
2022/05/05 06:46:12;;;;;;;11.80;5.80;;;;;;;;;;5028248;28;20479;-66
2022/05/05 06:48:38;;;;;;;11.48;5.55;;;;;;;;;;5026392;28;20503;-65
2022/05/05 06:51:05;;;;;;;10.90;6.07;;;;;;;;;;5026206;28;20038;-65
2022/05/05 06:53:31;;;;;;;13.07;6.50;;;;;;;;;;5027871;28;20083;-65
2022/05/05 06:55:58;;;;;;;14.65;6.13;;;;;;;;;;5027037;28;20184;-65
2022/05/05 06:58:25;;;;;;;10.25;5.93;;;;;;;;;;5026055;28;20125;-66
2022/05/05 07:03:36;;;;;;;13.43;5.20;;;;;;;;;;5027612;28;20088;-65
2022/05/05 07:06:02;;;;;;;13.60;4.57;;;;;;;;;;5024346;28;20053;-65
2022/05/05 07:10:52;;;;;;;10.35;4.68;;;;;;;;;;5050815;28;20794;-65
2022/05/05 07:11:17;;;;;;;12.07;5.60;;;;;;;;;;5025267;28;20128;-64
2022/05/05 07:13:43;;;;;;;12.40;4.97;;;;;;;;;;5051615;28;20037;-65
2022/05/05 07:16:09;;;;;;;8.57;5.07;;;;;;;;;;5026399;28;20077;-65
2022/05/05 07:18:35;;;;;;;13.15;5.03;;;;;;;;;;5047917;28;20077;-66
2022/05/05 07:21:01;;;;;;;9.98;5.07;;;;;;;;;;5026010;28;20052;-65
2022/05/05 07:23:27;;;;;;;10.68;5.55;;;;;;;;;;5024176;28;20388;-66
2022/05/05 07:25:53;;;;;;;13.88;5.63;;;;;;;;;;5035928;28;20048;-66
2022/05/05 07:28:19;;;;;;;12.63;5.13;;;;;;;;;;5008311;28;20091;-65
2022/05/05 07:30:45;;;;;;;11.35;4.88;;;;;;;;;;5029512;28;20452;-65
2022/05/05 07:33:11;;;;;;;9.15;4.10;;;;;;;;;;5050693;28;20047;-66
2022/05/05 07:35:40;;;;;;;11.35;4.45;;;;;;;;;;5029331;28;20103;-65
2022/05/05 07:38:06;;;;;;;11.48;4.93;;;;;;;;;;5028454;28;20495;-66
2022/05/05 07:40:32;;;;;;;9.32;4.22;;;;;;;;;;5062558;28;20499;-66
2022/05/05 07:42:58;;;;;;;10.35;4.68;;;;;;;;;;5053227;28;20037;-65
2022/05/05 07:45:24;;;;;;;11.80;4.95;;;;;;;;;;5025836;28;20033;-65
2022/05/05 07:47:50;;;;;;;11.70;4.47;;;;;;;;;;5027288;28;20033;-66
2022/05/05 07:50:16;;;;;;;12.70;4.95;;;;;;;;;;5028900;28;20047;-66
2022/05/05 07:52:43;;;;;;;10.25;4.78;;;;;;;;;;5029286;28;20458;-66
2022/05/05 07:55:09;;;;;;;12.10;4.88;;;;;;;;;;5029257;28;20155;-66
2022/05/05 07:57:46;;;;;;;10.40;4.72;;;;;;;;;;5029592;28;20128;-65
2022/05/05 08:00:13;;;;;;;9.05;4.13;;;;;;;;;;5012879;28;20121;-66
2022/05/05 08:02:39;;;;;;;8.73;4.43;;;;;;;;;;5028645;28;20082;-66
2022/05/05 08:05:08;;;;;;;10.50;4.07;;;;;;;;;;5028856;28;20095;-66
2022/05/05 08:07:35;;;;;;;7.75;3.60;;;;;;;;;;5031045;28;20076;-66
2022/05/05 08:10:01;;;;;;;10.98;3.40;;;;;;;;;;5050014;28;20068;-63
2022/05/05 08:12:28;;;;;;;9.10;4.22;;;;;;;;;;5031609;28;20403;-63
2022/05/05 08:14:54;;;;;;;8.65;3.90;;;;;;;;;;5029611;28;20849;-64
2022/05/05 08:17:20;;;;;;;15.77;4.13;;;;;;;;;;5045087;28;20037;-63
2022/05/05 08:19:46;;;;;;;11.63;4.13;;;;;;;;;;5013351;28;20096;-64
2022/05/05 08:22:12;;;;;;;10.70;3.33;;;;;;;;;;5031634;28;20034;-64
2022/05/05 08:30:08;;;;;;;9.63;3.85;;;;;;;;;;5033868;28;20081;-63
2022/05/05 08:32:34;;;;;;;9.57;3.95;;;;;;;;;;5031001;28;20049;-63
2022/05/05 08:35:00;;;;;;;9.20;3.40;;;;;;;;;;5029129;28;20041;-62
2022/05/05 08:37:26;;;;;;;11.50;3.92;;;;;;;;;;5012974;28;20045;-64
2022/05/05 08:39:52;;;;;;;7.30;3.65;;;;;;;;;;5035853;28;20041;-63
2022/05/05 08:42:18;;;;;;;8.93;4.10;;;;;;;;;;5029053;28;20128;-63
2022/05/05 08:44:45;;;;;;;8.93;3.58;;;;;;;;;;5030970;28;20522;-63
2022/05/05 08:47:11;;;;;;;5.82;3.00;;;;;;;;;;5061898;28;20125;-64
2022/05/05 08:49:37;;;;;;;6.18;3.15;;;;;;;;;;5027545;28;20129;-63
2022/05/05 08:52:04;;;;;;;7.22;3.22;;;;;;;;;;5029221;28;20073;-62
2022/05/05 08:54:32;;;;;;;12.98;4.03;;;;;;;;;;5029952;28;20100;-63
2022/05/05 08:56:58;;;;;;;8.18;3.75;;;;;;;;;;5030035;28;20041;-63
2022/05/05 08:59:25;;;;;;;7.45;3.60;;;;;;;;;;5029961;28;20045;-63
2022/05/05 09:01:52;;;;;;;9.45;4.35;;;;;;;;;;5028882;28;20164;-63
2022/05/05 09:04:19;;;;;;;9.07;3.90;;;;;;;;;;5029058;28;20798;-66
2022/05/05 09:06:46;;;;;;;10.32;3.97;;;;;;;;;;5060364;28;20038;-66
2022/05/05 09:09:18;;;;;;;9.75;4.20;;;;;;;;;;5029888;28;20112;-67
2022/05/05 09:11:44;;;;;;;10.30;4.00;;;;;;;;;;5047129;28;20345;-67
2022/05/05 09:14:10;;;;;;;7.45;3.58;;;;;;;;;;5029984;28;20131;-67
2022/05/05 09:16:47;;;;;;;11.40;3.92;;;;;;;;;;5030015;28;20128;-66
2022/05/05 09:19:18;;;;;;;9.15;3.88;;;;;;;;;;5027449;28;20176;-64
2022/05/05 09:21:47;;;;;;;9.55;3.63;;;;;;;;;;5029674;28;20045;-66
2022/05/05 09:26:58;;;;;;;9.52;3.78;;;;;;;;;;5028731;28;20472;-66
2022/05/05 09:29:24;;;;;;;10.00;3.53;;;;;;;;;;5029484;28;20293;-66
2022/05/05 09:31:50;;;;;;;9.60;4.15;;;;;;;;;;5042705;28;20044;-65
2022/05/05 09:34:20;;;;;;;6.65;3.50;;;;;;;;;;5060431;28;20037;-66
2022/05/05 09:36:47;;;;;;;8.30;4.25;;;;;;;;;;5027945;28;20506;-64
2022/05/05 09:39:13;;;;;;;8.77;4.20;;;;;;;;;;5028037;28;20049;-65
2022/05/05 09:41:46;;;;;;;8.07;3.50;;;;;;;;;;5029328;28;20494;-65
2022/05/05 09:44:13;;;;;;;11.40;3.90;;;;;;;;;;5028270;28;20045;-66
2022/05/05 09:46:40;;;;;;;10.52;4.15;;;;;;;;;;5011391;28;20491;-66
2022/05/05 09:49:12;;;;;;;6.40;3.58;;;;;;;;;;5027690;28;20103;-66
2022/05/05 09:57:41;;;;;;;8.00;3.72;;;;;;;;;;5029551;28;20116;-66
2022/05/05 10:00:58;;;;;;;9.02;3.92;;;;;;;;;;5027930;28;21308;-65
2022/05/05 10:05:49;;;;;;;9.50;4.50;;;;;;;;;;5027114;28;20064;-65
2022/05/05 10:08:16;;;;;;;10.35;4.30;;;;;;;;;;5029039;28;20534;-66
2022/05/05 10:10:43;;;;;;;9.35;4.95;;;;;;;;;;5053300;28;20131;-65
2022/05/05 10:13:12;;;;;;;8.43;4.68;;;;;;;;;;5030206;28;20455;-65
2022/05/05 10:16:00;;;;;;;9.70;4.88;;;;;;;;;;5084847;27;20385;-65
2022/05/05 10:18:28;;;;;;;11.00;5.65;;;;;;;;;;5084837;28;20041;-65
2022/05/05 10:20:54;;;;;;;11.75;5.25;;;;;;;;;;5074146;28;20036;-65
2022/05/05 10:23:39;;;;;;;11.85;5.82;;;;;;;;;;5050933;28;20094;-65
2022/05/05 10:26:06;;;;;;;9.27;5.45;;;;;;;;;;5050229;28;20179;-66
2022/05/05 10:28:47;;;;;;;8.73;5.35;;;;;;;;;;5050759;28;20032;-66
2022/05/05 10:31:33;;;;;;;10.43;5.80;;;;;;;;;;5072296;28;20078;-65
2022/05/05 10:34:07;;;;;;;12.20;5.50;;;;;;;;;;5066384;28;20063;-64
2022/05/05 10:36:34;;;;;;;10.13;5.55;;;;;;;;;;5080779;28;20044;-65
2022/05/05 10:39:16;;;;;;;9.60;5.60;;;;;;;;;;5053445;28;20235;-65
2022/05/05 10:41:42;;;;;;;8.70;5.72;;;;;;;;;;5081328;28;20037;-66
2022/05/05 10:44:14;;;;;;;12.98;5.80;;;;;;;;;;5062443;28;20531;-66
2022/05/05 10:46:57;;;;;;;9.20;5.23;;;;;;;;;;5070627;28;20044;-65
2022/05/05 10:49:39;;;;;;;11.18;5.63;;;;;;;;;;5073412;28;20048;-65
2022/05/05 10:52:11;;;;;;;8.35;5.45;;;;;;;;;;5093083;28;20075;-65
2022/05/05 10:54:38;;;;;;;11.63;5.50;;;;;;;;;;5071784;28;20442;-65
2022/05/05 10:57:23;;;;;;;10.05;6.47;;;;;;;;;;5068405;28;20070;-66
2022/05/05 11:00:07;;;;;;;8.90;6.07;;;;;;;;;;5055341;28;20045;-66
2022/05/05 11:02:34;;;;;;;9.43;6.30;;;;;;;;;;5050166;28;20029;-66
2022/05/05 11:05:19;;;;;;;7.97;6.13;;;;;;;;;;5055925;28;20124;-66
2022/05/05 11:07:49;;;;;;;9.77;6.10;;;;;;;;;;5072341;28;20091;-65
2022/05/05 11:10:34;;;;;;;11.77;6.80;;;;;;;;;;5038324;28;20051;-65
2022/05/05 11:13:00;;;;;;;10.32;6.60;;;;;;;;;;5055947;28;20040;-66
2022/05/05 11:21:33;;;;;;;7.20;6.25;;;;;;;;;;5075816;28;20116;-66
2022/05/05 11:24:00;;;;;;;11.90;6.38;;;;;;;;;;5054695;28;20556;-64
2022/05/05 11:26:27;;;;;;;10.40;6.40;;;;;;;;;;5059794;28;20044;-65
2022/05/05 11:28:55;;;;;;;10.73;6.80;;;;;;;;;;5057248;28;20044;-65
2022/05/05 11:31:22;;;;;;;10.07;5.90;;;;;;;;;;5055908;28;20040;-67
2022/05/05 11:34:03;;;;;;;10.20;6.90;;;;;;;;;;5057883;28;20044;-67
2022/05/05 11:36:30;;;;;;;9.32;6.57;;;;;;;;;;5075329;28;20056;-67
2022/05/05 11:38:59;;;;;;;9.98;6.95;;;;;;;;;;5054196;28;20293;-66
2022/05/05 11:41:26;;;;;;;8.65;6.65;;;;;;;;;;5055411;28;20060;-66
2022/05/05 11:46:38;;;;;;;11.27;7.55;;;;;;;;;;5054763;28;20372;-68
2022/05/05 11:49:05;;;;;;;11.80;8.18;;;;;;;;;;5054716;28;20045;-68
2022/05/05 11:51:34;;;;;;;13.77;8.75;;;;;;;;;;5044300;28;20527;-68
2022/05/05 11:54:04;;;;;;;11.50;8.52;;;;;;;;;;5066552;28;20037;-66
2022/05/05 11:56:30;;;;;;;10.55;7.82;;;;;;;;;;5034643;28;20093;-67
2022/05/05 12:01:54;;;;;;;10.85;9.02;;;;;;;;;;5060934;28;20435;-67
2022/05/05 12:04:22;;;;;;;11.55;8.18;;;;;;;;;;5057548;28;20603;-65
2022/05/05 12:06:48;;;;;;;9.95;8.10;;;;;;;;;;5038762;28;20128;-66
2022/05/05 12:09:14;;;;;;;12.63;7.78;;;;;;;;;;5056984;28;20048;-66
2022/05/05 12:11:43;;;;;;;10.15;7.10;;;;;;;;;;5032443;28;20128;-66
2022/05/05 12:14:11;;;;;;;8.35;7.15;;;;;;;;;;5062136;28;20123;-66
2022/05/05 12:16:38;;;;;;;10.73;7.32;;;;;;;;;;5052942;28;20636;-66
2022/05/05 12:19:22;;;;;;;10.25;7.32;;;;;;;;;;5056567;28;20033;-66
2022/05/05 12:21:57;;;;;;;10.07;6.50;;;;;;;;;;5055918;28;20487;-66
2022/05/05 12:24:24;;;;;;;12.52;6.47;;;;;;;;;;5037676;28;20439;-66
2022/05/05 12:27:11;;;;;;;9.85;6.78;;;;;;;;;;5042712;28;20068;-67
2022/05/05 12:29:43;;;;;;;11.25;6.60;;;;;;;;;;5069511;28;20075;-66
2022/05/05 12:32:15;;;;;;;9.40;6.15;;;;;;;;;;5058148;28;20119;-66
2022/05/05 12:34:42;;;;;;;10.33;5.50;;;;;;;;;;5069056;28;20517;-67
2022/05/05 12:37:09;;;;;;;7.30;5.22;;;;;;;;;;5056539;28;20066;-65
2022/05/05 12:39:35;;;;;;;7.65;5.18;;;;;;;;;;5056760;28;20506;-65
2022/05/05 12:42:01;;;;;;;9.15;6.05;;;;;;;;;;5050036;28;20052;-66
2022/05/05 12:44:31;;;;;;;6.80;5.43;;;;;;;;;;5045170;28;20387;-66
2022/05/05 12:47:04;;;;;;;8.02;5.38;;;;;;;;;;5060707;28;20418;-66
2022/05/05 12:49:34;;;;;;;7.78;5.70;;;;;;;;;;5042078;28;20072;-65
2022/05/05 12:52:00;;;;;;;9.50;6.05;;;;;;;;;;5057341;28;20666;-65
2022/05/05 12:59:56;;;;;;;8.20;5.45;;;;;;;;;;5057430;28;20497;-66
2022/05/05 13:02:22;;;;;;;8.20;5.55;;;;;;;;;;5040106;28;20035;-65
2022/05/05 13:04:48;;;;;;;8.60;5.85;;;;;;;;;;5056109;28;20487;-64
2022/05/05 13:07:15;;;;;;;9.52;5.70;;;;;;;;;;5061353;28;20052;-65
2022/05/05 13:09:41;;;;;;;9.57;5.18;;;;;;;;;;5055531;28;20083;-65
2022/05/05 13:12:07;;;;;;;6.05;5.15;;;;;;;;;;5048233;28;20041;-65
2022/05/05 13:14:33;;;;;;;8.65;4.93;;;;;;;;;;5067265;28;20055;-65
2022/05/05 13:17:00;;;;;;;8.20;5.15;;;;;;;;;;5061192;28;20240;-65
2022/05/05 13:19:29;;;;;;;9.40;5.45;;;;;;;;;;5062693;28;20059;-65
2022/05/05 13:21:55;;;;;;;9.57;5.63;;;;;;;;;;5065208;28;20044;-65
2022/05/05 13:24:21;;;;;;;8.68;5.38;;;;;;;;;;5056577;28;20372;-65
2022/05/05 13:26:48;;;;;;;10.27;5.78;;;;;;;;;;5060636;28;20051;-65
2022/05/05 13:29:14;;;;;;;9.38;5.45;;;;;;;;;;5053899;28;20115;-64
2022/05/05 13:31:41;;;;;;;9.88;5.70;;;;;;;;;;5054957;28;20433;-65
2022/05/05 13:34:08;;;;;;;10.68;5.43;;;;;;;;;;5053182;28;20033;-65
2022/05/05 13:36:35;;;;;;;9.00;5.30;;;;;;;;;;5059575;28;20127;-64
2022/05/05 13:39:01;;;;;;;12.63;5.53;;;;;;;;;;5058558;28;20036;-64
2022/05/05 13:41:28;;;;;;;9.23;5.70;;;;;;;;;;5042871;28;20097;-65
2022/05/05 13:43:54;;;;;;;10.68;5.68;;;;;;;;;;5054020;28;20044;-67
2022/05/05 13:46:20;;;;;;;11.85;6.15;;;;;;;;;;5043009;28;20095;-65
2022/05/05 13:48:46;;;;;;;9.93;5.75;;;;;;;;;;5056970;28;20112;-66
2022/05/05 13:51:15;;;;;;;14.43;6.55;;;;;;;;;;5057885;28;20494;-65
2022/05/05 13:53:41;;;;;;;10.68;6.03;;;;;;;;;;5052736;28;20036;-65
2022/05/05 13:56:09;;;;;;;9.35;6.28;;;;;;;;;;5055983;28;20033;-65
2022/05/05 13:58:35;;;;;;;8.57;5.60;;;;;;;;;;5038580;28;20065;-64
2022/05/05 14:01:01;;;;;;;9.05;5.50;;;;;;;;;;5056715;28;20055;-65
2022/05/05 14:03:28;;;;;;;11.32;6.07;;;;;;;;;;5055581;28;20071;-65
2022/05/05 14:05:54;;;;;;;10.45;5.90;;;;;;;;;;5056861;28;20051;-65
2022/05/05 14:13:50;;;;;;;9.90;5.13;;;;;;;;;;5053918;28;20518;-64
2022/05/05 14:16:18;;;;;;;10.68;5.50;;;;;;;;;;5056193;28;20503;-65
2022/05/05 14:18:44;;;;;;;8.50;5.22;;;;;;;;;;5055659;28;20032;-67
2022/05/05 14:21:11;;;;;;;9.00;5.63;;;;;;;;;;5050932;28;20068;-67
2022/05/05 14:23:37;;;;;;;10.85;5.57;;;;;;;;;;5038431;28;20124;-67
2022/05/05 14:26:03;;;;;;;9.00;5.75;;;;;;;;;;5052122;28;20095;-67
2022/05/05 14:28:29;;;;;;;9.35;5.40;;;;;;;;;;5057168;28;20499;-66
2022/05/05 14:30:55;;;;;;;9.20;5.90;;;;;;;;;;5038859;28;20045;-66
2022/05/05 14:33:22;;;;;;;8.27;5.78;;;;;;;;;;5056500;28;20576;-68
2022/05/05 14:35:48;;;;;;;8.48;5.88;;;;;;;;;;5056645;28;20383;-68
2022/05/05 14:38:15;;;;;;;10.45;6.18;;;;;;;;;;5053973;28;20044;-68
2022/05/05 14:40:42;;;;;;;8.15;6.07;;;;;;;;;;5054802;28;20041;-66
2022/05/05 14:43:08;;;;;;;9.23;5.55;;;;;;;;;;5055128;28;20033;-67
2022/05/05 14:45:34;;;;;;;10.70;6.43;;;;;;;;;;5044678;28;20052;-65
2022/05/05 14:48:01;;;;;;;8.43;6.88;;;;;;;;;;5053817;28;20053;-65
2022/05/05 14:50:27;;;;;;;10.57;6.28;;;;;;;;;;5053340;28;20044;-65
2022/05/05 14:52:53;;;;;;;10.55;6.43;;;;;;;;;;5033461;28;20084;-65
2022/05/05 14:55:20;;;;;;;9.10;5.70;;;;;;;;;;5059037;28;20040;-65
2022/05/05 14:57:47;;;;;;;10.55;6.20;;;;;;;;;;5055529;28;20049;-65
2022/05/05 15:00:13;;;;;;;13.45;6.72;;;;;;;;;;5056877;28;20064;-65
2022/05/05 15:02:39;;;;;;;9.02;6.00;;;;;;;;;;5057722;28;20040;-65
2022/05/05 15:05:06;;;;;;;10.60;6.13;;;;;;;;;;5058262;28;20047;-66
2022/05/05 15:07:32;;;;;;;10.45;6.18;;;;;;;;;;5056552;28;20135;-65
2022/05/05 15:09:58;;;;;;;11.02;7.05;;;;;;;;;;5060285;28;20085;-66
2022/05/05 15:12:24;;;;;;;8.73;6.85;;;;;;;;;;5042148;28;20067;-66
2022/05/05 15:14:51;;;;;;;12.18;6.57;;;;;;;;;;5057529;28;20053;-65
2022/05/05 15:17:17;;;;;;;11.98;6.82;;;;;;;;;;5022161;28;20041;-65
2022/05/05 15:19:43;;;;;;;11.45;6.03;;;;;;;;;;5016906;28;20483;-65
2022/05/05 15:22:10;;;;;;;11.38;5.88;;;;;;;;;;5004083;28;20045;-66
2022/05/05 15:24:37;;;;;;;14.30;6.00;;;;;;;;;;5018595;28;20045;-66
2022/05/05 15:27:04;;;;;;;12.77;6.22;;;;;;;;;;5018071;28;20045;-65
2022/05/05 15:29:32;;;;;;;9.52;6.40;;;;;;;;;;5022344;28;20045;-66
2022/05/05 15:31:59;;;;;;;10.45;6.32;;;;;;;;;;5017973;28;20141;-65
2022/05/05 15:34:40;;;;;;;11.15;6.57;;;;;;;;;;5021382;28;20525;-67
2022/05/05 15:37:38;;;;;;;13.65;7.45;;;;;;;;;;4995918;28;20144;-66